sensor_id;sensor_type;location;lat;lon;timestamp;P1;durP1;ratioP1;P2;durP2;ratioP2
46653;SDS011;38960;51.074;17.004;2022-08-04T00:00:17;14.90;;;13.60;;
46653;SDS011;38960;51.074;17.004;2022-08-04T00:08:14;14.50;;;13.15;;
46653;SDS011;38960;51.074;17.004;2022-08-04T00:10:53;14.48;;;13.00;;
46653;SDS011;38960;51.074;17.004;2022-08-04T00:13:23;14.32;;;12.90;;
46653;SDS011;38960;51.074;17.004;2022-08-04T00:15:50;14.30;;;13.10;;
46653;SDS011;38960;51.074;17.004;2022-08-04T00:18:17;14.45;;;13.15;;
46653;SDS011;38960;51.074;17.004;2022-08-04T00:20:47;13.68;;;12.57;;
46653;SDS011;38960;51.074;17.004;2022-08-04T00:23:14;14.25;;;12.82;;
46653;SDS011;38960;51.074;17.004;2022-08-04T00:25:41;14.48;;;13.30;;
46653;SDS011;38960;51.074;17.004;2022-08-04T00:28:08;14.48;;;13.07;;
46653;SDS011;38960;51.074;17.004;2022-08-04T00:30:33;14.88;;;13.52;;
46653;SDS011;38960;51.074;17.004;2022-08-04T00:32:59;14.93;;;13.48;;
46653;SDS011;38960;51.074;17.004;2022-08-04T00:35:25;13.65;;;12.50;;
46653;SDS011;38960;51.074;17.004;2022-08-04T00:37:52;14.57;;;13.27;;
46653;SDS011;38960;51.074;17.004;2022-08-04T00:40:35;13.95;;;12.95;;
46653;SDS011;38960;51.074;17.004;2022-08-04T00:43:20;14.52;;;13.30;;
46653;SDS011;38960;51.074;17.004;2022-08-04T00:49:18;15.73;;;13.00;;
46653;SDS011;38960;51.074;17.004;2022-08-04T01:00:14;14.65;;;13.55;;
46653;SDS011;38960;51.074;17.004;2022-08-04T01:02:52;14.70;;;13.43;;
46653;SDS011;38960;51.074;17.004;2022-08-04T01:05:56;14.55;;;13.43;;
46653;SDS011;38960;51.074;17.004;2022-08-04T01:19:59;16.73;;;13.57;;
46653;SDS011;38960;51.074;17.004;2022-08-04T01:28:00;14.85;;;13.50;;
46653;SDS011;38960;51.074;17.004;2022-08-04T01:30:35;15.48;;;14.02;;
46653;SDS011;38960;51.074;17.004;2022-08-04T01:33:02;15.32;;;14.02;;
46653;SDS011;38960;51.074;17.004;2022-08-04T01:35:34;14.93;;;13.77;;
46653;SDS011;38960;51.074;17.004;2022-08-04T01:38:04;15.13;;;13.82;;
46653;SDS011;38960;51.074;17.004;2022-08-04T01:40:38;14.35;;;13.10;;
46653;SDS011;38960;51.074;17.004;2022-08-04T01:43:05;14.50;;;13.38;;
46653;SDS011;38960;51.074;17.004;2022-08-04T01:45:33;14.43;;;12.98;;
46653;SDS011;38960;51.074;17.004;2022-08-04T01:48:01;15.63;;;14.10;;
46653;SDS011;38960;51.074;17.004;2022-08-04T01:50:27;15.30;;;13.90;;
46653;SDS011;38960;51.074;17.004;2022-08-04T01:53:00;15.38;;;14.07;;
46653;SDS011;38960;51.074;17.004;2022-08-04T01:55:27;13.80;;;12.85;;
46653;SDS011;38960;51.074;17.004;2022-08-04T01:57:53;14.43;;;13.30;;
46653;SDS011;38960;51.074;17.004;2022-08-04T02:00:23;14.98;;;13.55;;
46653;SDS011;38960;51.074;17.004;2022-08-04T02:02:51;17.15;;;13.23;;
46653;SDS011;38960;51.074;17.004;2022-08-04T02:05:19;14.77;;;13.55;;
46653;SDS011;38960;51.074;17.004;2022-08-04T02:08:00;15.40;;;14.00;;
46653;SDS011;38960;51.074;17.004;2022-08-04T02:16:41;14.70;;;13.57;;
46653;SDS011;38960;51.074;17.004;2022-08-04T02:19:29;15.00;;;13.75;;
46653;SDS011;38960;51.074;17.004;2022-08-04T02:22:07;14.10;;;12.88;;
46653;SDS011;38960;51.074;17.004;2022-08-04T02:24:35;14.57;;;13.38;;
46653;SDS011;38960;51.074;17.004;2022-08-04T02:27:07;14.27;;;13.18;;
46653;SDS011;38960;51.074;17.004;2022-08-04T02:29:38;16.08;;;14.52;;
46653;SDS011;38960;51.074;17.004;2022-08-04T02:32:10;15.57;;;14.18;;
46653;SDS011;38960;51.074;17.004;2022-08-04T02:35:19;15.82;;;13.65;;
46653;SDS011;38960;51.074;17.004;2022-08-04T02:38:00;13.95;;;12.65;;
46653;SDS011;38960;51.074;17.004;2022-08-04T02:40:36;15.45;;;14.10;;
46653;SDS011;38960;51.074;17.004;2022-08-04T02:43:03;16.10;;;14.73;;
46653;SDS011;38960;51.074;17.004;2022-08-04T02:45:30;15.23;;;13.85;;
46653;SDS011;38960;51.074;17.004;2022-08-04T02:47:56;14.68;;;13.48;;
46653;SDS011;38960;51.074;17.004;2022-08-04T02:50:24;14.90;;;13.68;;
46653;SDS011;38960;51.074;17.004;2022-08-04T02:52:50;16.08;;;14.57;;
46653;SDS011;38960;51.074;17.004;2022-08-04T02:55:16;15.40;;;13.93;;
46653;SDS011;38960;51.074;17.004;2022-08-04T02:57:42;15.68;;;14.35;;
46653;SDS011;38960;51.074;17.004;2022-08-04T03:00:10;15.85;;;14.25;;
46653;SDS011;38960;51.074;17.004;2022-08-04T03:05:21;15.20;;;13.85;;
46653;SDS011;38960;51.074;17.004;2022-08-04T03:33:01;16.05;;;14.63;;
46653;SDS011;38960;51.074;17.004;2022-08-04T03:41:35;16.85;;;15.18;;
46653;SDS011;38960;51.074;17.004;2022-08-04T03:50:04;15.55;;;13.98;;
46653;SDS011;38960;51.074;17.004;2022-08-04T04:27:00;17.40;;;15.75;;
46653;SDS011;38960;51.074;17.004;2022-08-04T04:31:58;17.17;;;15.60;;
46653;SDS011;38960;51.074;17.004;2022-08-04T04:52:24;17.08;;;15.27;;
46653;SDS011;38960;51.074;17.004;2022-08-04T04:54:39;16.27;;;14.88;;
46653;SDS011;38960;51.074;17.004;2022-08-04T04:57:18;16.10;;;14.68;;
46653;SDS011;38960;51.074;17.004;2022-08-04T04:59:58;16.77;;;15.30;;
46653;SDS011;38960;51.074;17.004;2022-08-04T05:16:02;16.77;;;15.38;;
46653;SDS011;38960;51.074;17.004;2022-08-04T05:18:31;16.10;;;14.80;;
46653;SDS011;38960;51.074;17.004;2022-08-04T05:21:17;15.82;;;14.52;;
46653;SDS011;38960;51.074;17.004;2022-08-04T05:23:47;16.80;;;15.20;;
46653;SDS011;38960;51.074;17.004;2022-08-04T05:26:15;17.42;;;15.80;;
46653;SDS011;38960;51.074;17.004;2022-08-04T05:28:47;17.55;;;15.32;;
46653;SDS011;38960;51.074;17.004;2022-08-04T05:31:20;16.73;;;15.20;;
46653;SDS011;38960;51.074;17.004;2022-08-04T05:33:53;17.65;;;16.00;;
46653;SDS011;38960;51.074;17.004;2022-08-04T05:36:23;17.42;;;15.73;;
46653;SDS011;38960;51.074;17.004;2022-08-04T05:38:54;16.98;;;15.23;;
46653;SDS011;38960;51.074;17.004;2022-08-04T05:41:23;16.95;;;15.50;;
46653;SDS011;38960;51.074;17.004;2022-08-04T05:43:51;15.82;;;14.48;;
46653;SDS011;38960;51.074;17.004;2022-08-04T05:46:17;15.20;;;13.77;;
46653;SDS011;38960;51.074;17.004;2022-08-04T05:48:43;15.15;;;13.90;;
46653;SDS011;38960;51.074;17.004;2022-08-04T05:51:09;15.50;;;14.20;;
46653;SDS011;38960;51.074;17.004;2022-08-04T05:53:36;16.88;;;14.95;;
46653;SDS011;38960;51.074;17.004;2022-08-04T05:56:02;15.07;;;13.88;;
46653;SDS011;38960;51.074;17.004;2022-08-04T05:58:29;15.85;;;14.50;;
46653;SDS011;38960;51.074;17.004;2022-08-04T06:00:55;16.00;;;14.20;;
46653;SDS011;38960;51.074;17.004;2022-08-04T06:03:21;15.07;;;13.75;;
46653;SDS011;38960;51.074;17.004;2022-08-04T06:05:47;16.05;;;14.40;;
46653;SDS011;38960;51.074;17.004;2022-08-04T06:08:13;15.07;;;13.73;;
46653;SDS011;38960;51.074;17.004;2022-08-04T06:10:38;15.85;;;14.60;;
46653;SDS011;38960;51.074;17.004;2022-08-04T06:13:06;16.55;;;14.63;;
46653;SDS011;38960;51.074;17.004;2022-08-04T06:15:35;18.77;;;17.00;;
46653;SDS011;38960;51.074;17.004;2022-08-04T06:18:03;19.10;;;14.83;;
46653;SDS011;38960;51.074;17.004;2022-08-04T06:20:32;19.42;;;14.57;;
46653;SDS011;38960;51.074;17.004;2022-08-04T06:22:59;15.25;;;13.82;;
46653;SDS011;38960;51.074;17.004;2022-08-04T06:25:35;15.57;;;14.48;;
46653;SDS011;38960;51.074;17.004;2022-08-04T06:28:04;15.82;;;14.32;;
46653;SDS011;38960;51.074;17.004;2022-08-04T06:30:30;15.82;;;14.45;;
46653;SDS011;38960;51.074;17.004;2022-08-04T06:32:57;15.82;;;14.35;;
46653;SDS011;38960;51.074;17.004;2022-08-04T06:35:27;15.27;;;13.80;;
46653;SDS011;38960;51.074;17.004;2022-08-04T06:37:54;15.77;;;14.20;;
46653;SDS011;38960;51.074;17.004;2022-08-04T06:40:21;15.35;;;14.02;;
46653;SDS011;38960;51.074;17.004;2022-08-04T06:42:48;17.67;;;14.88;;
46653;SDS011;38960;51.074;17.004;2022-08-04T06:45:14;16.10;;;14.52;;
46653;SDS011;38960;51.074;17.004;2022-08-04T06:47:40;16.35;;;14.90;;
46653;SDS011;38960;51.074;17.004;2022-08-04T06:50:07;16.52;;;14.98;;
46653;SDS011;38960;51.074;17.004;2022-08-04T06:52:34;15.57;;;14.15;;
46653;SDS011;38960;51.074;17.004;2022-08-04T06:54:59;20.17;;;15.25;;
46653;SDS011;38960;51.074;17.004;2022-08-04T06:57:25;18.30;;;13.82;;
46653;SDS011;38960;51.074;17.004;2022-08-04T07:00:00;15.70;;;14.30;;
46653;SDS011;38960;51.074;17.004;2022-08-04T07:02:29;17.00;;;13.98;;
46653;SDS011;38960;51.074;17.004;2022-08-04T07:04:57;15.40;;;13.80;;
46653;SDS011;38960;51.074;17.004;2022-08-04T07:07:23;15.25;;;13.85;;
46653;SDS011;38960;51.074;17.004;2022-08-04T07:09:48;15.70;;;14.27;;
46653;SDS011;38960;51.074;17.004;2022-08-04T07:12:14;15.18;;;13.68;;
46653;SDS011;38960;51.074;17.004;2022-08-04T07:14:44;14.15;;;13.02;;
46653;SDS011;38960;51.074;17.004;2022-08-04T07:17:10;15.30;;;14.23;;
46653;SDS011;38960;51.074;17.004;2022-08-04T07:19:38;14.85;;;13.65;;
46653;SDS011;38960;51.074;17.004;2022-08-04T07:22:03;15.57;;;13.95;;
46653;SDS011;38960;51.074;17.004;2022-08-04T07:24:32;14.82;;;13.45;;
46653;SDS011;38960;51.074;17.004;2022-08-04T07:26:58;15.05;;;13.90;;
46653;SDS011;38960;51.074;17.004;2022-08-04T07:29:24;16.40;;;14.90;;
46653;SDS011;38960;51.074;17.004;2022-08-04T07:31:50;15.07;;;13.65;;
46653;SDS011;38960;51.074;17.004;2022-08-04T07:34:18;17.40;;;14.02;;
46653;SDS011;38960;51.074;17.004;2022-08-04T07:36:44;15.25;;;14.07;;
46653;SDS011;38960;51.074;17.004;2022-08-04T07:39:09;14.80;;;13.80;;
46653;SDS011;38960;51.074;17.004;2022-08-04T07:41:35;15.20;;;14.18;;
46653;SDS011;38960;51.074;17.004;2022-08-04T07:44:01;15.10;;;13.98;;
46653;SDS011;38960;51.074;17.004;2022-08-04T07:46:27;14.13;;;13.13;;
46653;SDS011;38960;51.074;17.004;2022-08-04T07:48:53;14.10;;;13.10;;
46653;SDS011;38960;51.074;17.004;2022-08-04T07:51:19;14.80;;;13.55;;
46653;SDS011;38960;51.074;17.004;2022-08-04T07:53:44;15.82;;;14.52;;
46653;SDS011;38960;51.074;17.004;2022-08-04T07:56:11;15.25;;;13.98;;
46653;SDS011;38960;51.074;17.004;2022-08-04T07:58:37;15.75;;;14.02;;
46653;SDS011;38960;51.074;17.004;2022-08-04T08:01:03;14.07;;;13.13;;
46653;SDS011;38960;51.074;17.004;2022-08-04T08:03:28;15.52;;;14.10;;
46653;SDS011;38960;51.074;17.004;2022-08-04T08:05:54;15.02;;;14.05;;
46653;SDS011;38960;51.074;17.004;2022-08-04T08:08:19;15.73;;;14.63;;
46653;SDS011;38960;51.074;17.004;2022-08-04T08:10:46;15.05;;;13.90;;
46653;SDS011;38960;51.074;17.004;2022-08-04T08:13:12;15.35;;;14.15;;
46653;SDS011;38960;51.074;17.004;2022-08-04T08:15:39;15.45;;;14.45;;
46653;SDS011;38960;51.074;17.004;2022-08-04T08:18:04;16.13;;;14.75;;
46653;SDS011;38960;51.074;17.004;2022-08-04T08:20:30;15.85;;;14.75;;
46653;SDS011;38960;51.074;17.004;2022-08-04T08:22:56;14.73;;;13.73;;
46653;SDS011;38960;51.074;17.004;2022-08-04T08:25:22;14.63;;;13.82;;
46653;SDS011;38960;51.074;17.004;2022-08-04T08:27:47;14.35;;;13.50;;
46653;SDS011;38960;51.074;17.004;2022-08-04T08:30:13;15.95;;;14.70;;
46653;SDS011;38960;51.074;17.004;2022-08-04T08:32:38;15.10;;;13.73;;
46653;SDS011;38960;51.074;17.004;2022-08-04T08:35:04;14.45;;;13.55;;
46653;SDS011;38960;51.074;17.004;2022-08-04T08:40:16;15.00;;;14.00;;
46653;SDS011;38960;51.074;17.004;2022-08-04T08:57:01;15.85;;;14.48;;
46653;SDS011;38960;51.074;17.004;2022-08-04T09:03:16;14.98;;;13.88;;
46653;SDS011;38960;51.074;17.004;2022-08-04T09:11:30;14.57;;;13.68;;
46653;SDS011;38960;51.074;17.004;2022-08-04T09:14:20;15.13;;;13.75;;
46653;SDS011;38960;51.074;17.004;2022-08-04T09:16:51;15.50;;;14.10;;
46653;SDS011;38960;51.074;17.004;2022-08-04T09:19:22;14.73;;;13.27;;
46653;SDS011;38960;51.074;17.004;2022-08-04T09:22:27;13.88;;;12.90;;
46653;SDS011;38960;51.074;17.004;2022-08-04T09:30:28;13.88;;;13.07;;
46653;SDS011;38960;51.074;17.004;2022-08-04T09:33:06;13.85;;;12.77;;
46653;SDS011;38960;51.074;17.004;2022-08-04T09:35:41;14.50;;;13.45;;
46653;SDS011;38960;51.074;17.004;2022-08-04T09:38:28;14.40;;;13.30;;
46653;SDS011;38960;51.074;17.004;2022-08-04T09:54:21;13.88;;;12.73;;
46653;SDS011;38960;51.074;17.004;2022-08-04T09:59:47;15.05;;;13.95;;
46653;SDS011;38960;51.074;17.004;2022-08-04T10:02:19;14.85;;;13.60;;
46653;SDS011;38960;51.074;17.004;2022-08-04T10:04:46;14.93;;;13.70;;
46653;SDS011;38960;51.074;17.004;2022-08-04T10:07:23;14.27;;;12.90;;
46653;SDS011;38960;51.074;17.004;2022-08-04T10:10:19;14.32;;;13.32;;
46653;SDS011;38960;51.074;17.004;2022-08-04T10:15:52;14.35;;;13.35;;
46653;SDS011;38960;51.074;17.004;2022-08-04T10:21:18;14.40;;;13.05;;
46653;SDS011;38960;51.074;17.004;2022-08-04T10:23:56;14.68;;;13.70;;
46653;SDS011;38960;51.074;17.004;2022-08-04T10:29:17;13.25;;;12.35;;
46653;SDS011;38960;51.074;17.004;2022-08-04T10:31:47;13.55;;;12.48;;
46653;SDS011;38960;51.074;17.004;2022-08-04T10:34:24;13.57;;;12.65;;
46653;SDS011;38960;51.074;17.004;2022-08-04T10:36:55;13.33;;;12.53;;
46653;SDS011;38960;51.074;17.004;2022-08-04T10:39:25;14.52;;;12.23;;
46653;SDS011;38960;51.074;17.004;2022-08-04T10:42:10;12.85;;;11.93;;
46653;SDS011;38960;51.074;17.004;2022-08-04T10:47:23;13.35;;;12.15;;
46653;SDS011;38960;51.074;17.004;2022-08-04T10:49:57;12.40;;;11.70;;
46653;SDS011;38960;51.074;17.004;2022-08-04T10:52:44;11.98;;;11.23;;
46653;SDS011;38960;51.074;17.004;2022-08-04T10:55:16;13.40;;;12.27;;
46653;SDS011;38960;51.074;17.004;2022-08-04T10:57:49;13.65;;;12.50;;
46653;SDS011;38960;51.074;17.004;2022-08-04T11:00:26;14.13;;;11.98;;
46653;SDS011;38960;51.074;17.004;2022-08-04T11:03:00;13.18;;;11.77;;
46653;SDS011;38960;51.074;17.004;2022-08-04T11:05:40;15.35;;;12.48;;
46653;SDS011;38960;51.074;17.004;2022-08-04T11:08:13;12.48;;;11.68;;
46653;SDS011;38960;51.074;17.004;2022-08-04T11:13:43;12.55;;;11.45;;
46653;SDS011;38960;51.074;17.004;2022-08-04T11:16:20;12.57;;;11.77;;
46653;SDS011;38960;51.074;17.004;2022-08-04T11:28:08;12.20;;;11.20;;
46653;SDS011;38960;51.074;17.004;2022-08-04T11:33:26;12.60;;;11.52;;
46653;SDS011;38960;51.074;17.004;2022-08-04T11:36:02;12.38;;;11.57;;
46653;SDS011;38960;51.074;17.004;2022-08-04T11:38:32;13.63;;;12.73;;
46653;SDS011;38960;51.074;17.004;2022-08-04T11:41:04;12.73;;;11.93;;
46653;SDS011;38960;51.074;17.004;2022-08-04T11:43:48;12.20;;;11.35;;
46653;SDS011;38960;51.074;17.004;2022-08-04T11:46:31;12.93;;;12.13;;
46653;SDS011;38960;51.074;17.004;2022-08-04T11:49:08;15.32;;;12.30;;
46653;SDS011;38960;51.074;17.004;2022-08-04T11:51:36;12.77;;;11.88;;
46653;SDS011;38960;51.074;17.004;2022-08-04T11:54:02;12.90;;;11.82;;
46653;SDS011;38960;51.074;17.004;2022-08-04T11:56:28;12.95;;;11.55;;
46653;SDS011;38960;51.074;17.004;2022-08-04T11:58:55;12.18;;;11.13;;
46653;SDS011;38960;51.074;17.004;2022-08-04T12:01:26;12.43;;;11.57;;
46653;SDS011;38960;51.074;17.004;2022-08-04T12:06:56;13.65;;;12.55;;
46653;SDS011;38960;51.074;17.004;2022-08-04T12:12:20;12.43;;;11.68;;
46653;SDS011;38960;51.074;17.004;2022-08-04T12:15:44;12.38;;;11.55;;
46653;SDS011;38960;51.074;17.004;2022-08-04T12:18:06;12.73;;;11.73;;
46653;SDS011;38960;51.074;17.004;2022-08-04T12:20:49;13.18;;;12.27;;
46653;SDS011;38960;51.074;17.004;2022-08-04T12:23:26;12.48;;;11.32;;
46653;SDS011;38960;51.074;17.004;2022-08-04T12:25:59;11.85;;;10.82;;
46653;SDS011;38960;51.074;17.004;2022-08-04T12:30:59;11.90;;;11.10;;
46653;SDS011;38960;51.074;17.004;2022-08-04T12:33:46;11.88;;;11.07;;
46653;SDS011;38960;51.074;17.004;2022-08-04T12:37:17;12.68;;;11.25;;
46653;SDS011;38960;51.074;17.004;2022-08-04T12:39:20;12.43;;;11.63;;
46653;SDS011;38960;51.074;17.004;2022-08-04T12:44:30;13.18;;;12.18;;
46653;SDS011;38960;51.074;17.004;2022-08-04T12:47:01;12.05;;;11.35;;
46653;SDS011;38960;51.074;17.004;2022-08-04T12:49:30;12.50;;;11.60;;
46653;SDS011;38960;51.074;17.004;2022-08-04T12:51:56;12.52;;;11.43;;
46653;SDS011;38960;51.074;17.004;2022-08-04T12:54:23;12.43;;;11.52;;
46653;SDS011;38960;51.074;17.004;2022-08-04T12:56:49;12.30;;;11.50;;
46653;SDS011;38960;51.074;17.004;2022-08-04T12:59:16;13.32;;;12.43;;
46653;SDS011;38960;51.074;17.004;2022-08-04T13:01:51;12.70;;;11.90;;
46653;SDS011;38960;51.074;17.004;2022-08-04T13:04:21;13.90;;;12.68;;
46653;SDS011;38960;51.074;17.004;2022-08-04T13:07:00;15.55;;;14.45;;
46653;SDS011;38960;51.074;17.004;2022-08-04T13:09:28;13.75;;;12.70;;
46653;SDS011;38960;51.074;17.004;2022-08-04T13:12:17;15.18;;;13.98;;
46653;SDS011;38960;51.074;17.004;2022-08-04T13:14:58;16.75;;;15.00;;
46653;SDS011;38960;51.074;17.004;2022-08-04T13:17:49;13.80;;;12.85;;
46653;SDS011;38960;51.074;17.004;2022-08-04T13:20:47;13.02;;;11.93;;
46653;SDS011;38960;51.074;17.004;2022-08-04T13:23:17;13.35;;;12.00;;
46653;SDS011;38960;51.074;17.004;2022-08-04T13:25:44;13.07;;;12.18;;
46653;SDS011;38960;51.074;17.004;2022-08-04T13:28:12;13.10;;;12.20;;
46653;SDS011;38960;51.074;17.004;2022-08-04T13:30:39;13.60;;;12.52;;
46653;SDS011;38960;51.074;17.004;2022-08-04T13:33:05;13.05;;;12.10;;
46653;SDS011;38960;51.074;17.004;2022-08-04T13:35:31;13.07;;;12.18;;
46653;SDS011;38960;51.074;17.004;2022-08-04T13:37:58;13.73;;;12.82;;
46653;SDS011;38960;51.074;17.004;2022-08-04T13:40:25;14.90;;;13.70;;
46653;SDS011;38960;51.074;17.004;2022-08-04T13:42:52;13.48;;;12.57;;
46653;SDS011;38960;51.074;17.004;2022-08-04T13:45:21;13.85;;;12.85;;
46653;SDS011;38960;51.074;17.004;2022-08-04T13:47:48;13.45;;;12.48;;
46653;SDS011;38960;51.074;17.004;2022-08-04T13:52:49;12.70;;;11.80;;
46653;SDS011;38960;51.074;17.004;2022-08-04T13:57:46;12.07;;;11.27;;
46653;SDS011;38960;51.074;17.004;2022-08-04T14:00:15;12.50;;;11.80;;
46653;SDS011;38960;51.074;17.004;2022-08-04T14:05:29;12.80;;;12.02;;
46653;SDS011;38960;51.074;17.004;2022-08-04T14:10:21;12.98;;;12.18;;
46653;SDS011;38960;51.074;17.004;2022-08-04T14:12:47;13.95;;;12.85;;
46653;SDS011;38960;51.074;17.004;2022-08-04T14:15:32;12.93;;;12.02;;
46653;SDS011;38960;51.074;17.004;2022-08-04T14:21:01;13.40;;;12.27;;
46653;SDS011;38960;51.074;17.004;2022-08-04T14:23:47;12.98;;;12.10;;
46653;SDS011;38960;51.074;17.004;2022-08-04T14:28:51;13.52;;;12.68;;
46653;SDS011;38960;51.074;17.004;2022-08-04T14:31:18;13.77;;;12.98;;
46653;SDS011;38960;51.074;17.004;2022-08-04T14:33:45;13.63;;;12.68;;
46653;SDS011;38960;51.074;17.004;2022-08-04T14:36:11;13.60;;;12.65;;
46653;SDS011;38960;51.074;17.004;2022-08-04T14:41:07;12.57;;;11.77;;
46653;SDS011;38960;51.074;17.004;2022-08-04T14:43:32;13.00;;;12.20;;
46653;SDS011;38960;51.074;17.004;2022-08-04T14:46:05;13.40;;;12.30;;
46653;SDS011;38960;51.074;17.004;2022-08-04T14:48:31;13.23;;;12.35;;
46653;SDS011;38960;51.074;17.004;2022-08-04T14:50:56;13.38;;;12.52;;
46653;SDS011;38960;51.074;17.004;2022-08-04T14:53:23;12.88;;;12.05;;
46653;SDS011;38960;51.074;17.004;2022-08-04T14:55:57;13.35;;;12.30;;
46653;SDS011;38960;51.074;17.004;2022-08-04T14:58:24;13.30;;;12.30;;
46653;SDS011;38960;51.074;17.004;2022-08-04T15:00:55;14.32;;;13.10;;
46653;SDS011;38960;51.074;17.004;2022-08-04T15:03:22;12.55;;;11.75;;
46653;SDS011;38960;51.074;17.004;2022-08-04T15:05:48;13.57;;;12.70;;
46653;SDS011;38960;51.074;17.004;2022-08-04T15:08:15;13.57;;;12.77;;
46653;SDS011;38960;51.074;17.004;2022-08-04T15:10:41;12.95;;;12.05;;
46653;SDS011;38960;51.074;17.004;2022-08-04T15:13:08;12.80;;;12.00;;
46653;SDS011;38960;51.074;17.004;2022-08-04T15:15:37;13.15;;;12.18;;
46653;SDS011;38960;51.074;17.004;2022-08-04T15:18:03;13.13;;;12.20;;
46653;SDS011;38960;51.074;17.004;2022-08-04T15:20:31;13.23;;;12.23;;
46653;SDS011;38960;51.074;17.004;2022-08-04T15:22:56;12.77;;;11.88;;
46653;SDS011;38960;51.074;17.004;2022-08-04T15:25:22;13.23;;;12.35;;
46653;SDS011;38960;51.074;17.004;2022-08-04T15:27:48;13.40;;;12.40;;
46653;SDS011;38960;51.074;17.004;2022-08-04T15:30:15;13.02;;;12.02;;
46653;SDS011;38960;51.074;17.004;2022-08-04T15:32:49;13.38;;;12.35;;
46653;SDS011;38960;51.074;17.004;2022-08-04T15:35:17;13.27;;;12.38;;
46653;SDS011;38960;51.074;17.004;2022-08-04T15:37:51;13.55;;;12.50;;
46653;SDS011;38960;51.074;17.004;2022-08-04T15:46:10;13.30;;;12.05;;
46653;SDS011;38960;51.074;17.004;2022-08-04T15:48:36;13.60;;;12.55;;
46653;SDS011;38960;51.074;17.004;2022-08-04T15:51:04;14.07;;;13.00;;
46653;SDS011;38960;51.074;17.004;2022-08-04T15:58:52;13.25;;;12.45;;
46653;SDS011;38960;51.074;17.004;2022-08-04T16:01:21;13.95;;;12.85;;
46653;SDS011;38960;51.074;17.004;2022-08-04T16:03:47;13.23;;;12.32;;
46653;SDS011;38960;51.074;17.004;2022-08-04T16:14:30;13.07;;;11.98;;
46653;SDS011;38960;51.074;17.004;2022-08-04T16:19:06;13.70;;;12.80;;
46653;SDS011;38960;51.074;17.004;2022-08-04T16:21:33;13.38;;;12.07;;
46653;SDS011;38960;51.074;17.004;2022-08-04T16:26:42;13.30;;;12.20;;
46653;SDS011;38960;51.074;17.004;2022-08-04T16:37:09;14.00;;;13.00;;
46653;SDS011;38960;51.074;17.004;2022-08-04T16:39:36;14.23;;;13.07;;
46653;SDS011;38960;51.074;17.004;2022-08-04T16:42:44;13.23;;;12.23;;
46653;SDS011;38960;51.074;17.004;2022-08-04T16:50:19;13.02;;;12.20;;
46653;SDS011;38960;51.074;17.004;2022-08-04T16:55:26;13.40;;;12.27;;
46653;SDS011;38960;51.074;17.004;2022-08-04T16:57:53;13.65;;;12.68;;
46653;SDS011;38960;51.074;17.004;2022-08-04T17:00:31;13.73;;;12.73;;
46653;SDS011;38960;51.074;17.004;2022-08-04T17:03:01;14.63;;;13.27;;
46653;SDS011;38960;51.074;17.004;2022-08-04T17:05:27;13.77;;;12.50;;
46653;SDS011;38960;51.074;17.004;2022-08-04T17:07:53;13.23;;;12.32;;
46653;SDS011;38960;51.074;17.004;2022-08-04T17:13:35;13.63;;;12.60;;
46653;SDS011;38960;51.074;17.004;2022-08-04T17:16:02;13.43;;;12.63;;
46653;SDS011;38960;51.074;17.004;2022-08-04T17:18:30;16.13;;;13.07;;
46653;SDS011;38960;51.074;17.004;2022-08-04T17:21:02;13.90;;;12.90;;
46653;SDS011;38960;51.074;17.004;2022-08-04T17:26:04;14.80;;;13.60;;
46653;SDS011;38960;51.074;17.004;2022-08-04T17:28:51;13.82;;;12.73;;
46653;SDS011;38960;51.074;17.004;2022-08-04T17:31:19;13.75;;;12.48;;
46653;SDS011;38960;51.074;17.004;2022-08-04T17:33:48;13.43;;;12.50;;
46653;SDS011;38960;51.074;17.004;2022-08-04T17:36:15;13.75;;;12.68;;
46653;SDS011;38960;51.074;17.004;2022-08-04T17:38:43;14.80;;;13.45;;
46653;SDS011;38960;51.074;17.004;2022-08-04T17:41:10;13.90;;;12.85;;
46653;SDS011;38960;51.074;17.004;2022-08-04T17:43:39;12.88;;;11.75;;
46653;SDS011;38960;51.074;17.004;2022-08-04T17:46:13;13.23;;;12.15;;
46653;SDS011;38960;51.074;17.004;2022-08-04T17:48:40;14.65;;;13.02;;
46653;SDS011;38960;51.074;17.004;2022-08-04T17:51:16;13.88;;;12.52;;
46653;SDS011;38960;51.074;17.004;2022-08-04T17:53:42;13.18;;;12.13;;
46653;SDS011;38960;51.074;17.004;2022-08-04T18:01:41;14.23;;;12.65;;
46653;SDS011;38960;51.074;17.004;2022-08-04T18:06:58;14.02;;;12.32;;
46653;SDS011;38960;51.074;17.004;2022-08-04T18:09:26;13.23;;;12.02;;
46653;SDS011;38960;51.074;17.004;2022-08-04T18:14:18;14.18;;;11.73;;
46653;SDS011;38960;51.074;17.004;2022-08-04T18:16:44;13.30;;;12.20;;
46653;SDS011;38960;51.074;17.004;2022-08-04T18:19:10;22.25;;;11.75;;
46653;SDS011;38960;51.074;17.004;2022-08-04T18:21:37;12.70;;;11.63;;
46653;SDS011;38960;51.074;17.004;2022-08-04T18:24:03;13.50;;;12.15;;
46653;SDS011;38960;51.074;17.004;2022-08-04T18:26:28;12.63;;;11.70;;
46653;SDS011;38960;51.074;17.004;2022-08-04T18:28:54;14.25;;;12.07;;
46653;SDS011;38960;51.074;17.004;2022-08-04T18:31:19;13.38;;;12.43;;
46653;SDS011;38960;51.074;17.004;2022-08-04T18:33:45;13.65;;;12.35;;
46653;SDS011;38960;51.074;17.004;2022-08-04T18:36:10;14.25;;;13.15;;
46653;SDS011;38960;51.074;17.004;2022-08-04T18:38:36;13.05;;;12.13;;
46653;SDS011;38960;51.074;17.004;2022-08-04T18:41:01;14.07;;;13.00;;
46653;SDS011;38960;51.074;17.004;2022-08-04T18:43:27;15.57;;;13.20;;
46653;SDS011;38960;51.074;17.004;2022-08-04T18:45:52;13.38;;;12.48;;
46653;SDS011;38960;51.074;17.004;2022-08-04T18:48:17;14.95;;;13.80;;
46653;SDS011;38960;51.074;17.004;2022-08-04T18:50:43;14.43;;;13.07;;
46653;SDS011;38960;51.074;17.004;2022-08-04T18:53:08;14.45;;;13.35;;
46653;SDS011;38960;51.074;17.004;2022-08-04T18:55:34;13.57;;;12.57;;
46653;SDS011;38960;51.074;17.004;2022-08-04T18:57:59;14.60;;;13.15;;
46653;SDS011;38960;51.074;17.004;2022-08-04T19:00:25;13.57;;;12.68;;
46653;SDS011;38960;51.074;17.004;2022-08-04T19:02:50;14.18;;;12.93;;
46653;SDS011;38960;51.074;17.004;2022-08-04T19:05:15;15.05;;;13.32;;
46653;SDS011;38960;51.074;17.004;2022-08-04T19:07:41;13.63;;;12.63;;
46653;SDS011;38960;51.074;17.004;2022-08-04T19:10:06;18.40;;;12.90;;
46653;SDS011;38960;51.074;17.004;2022-08-04T19:12:32;13.50;;;12.40;;
46653;SDS011;38960;51.074;17.004;2022-08-04T19:14:59;14.80;;;12.70;;
46653;SDS011;38960;51.074;17.004;2022-08-04T19:17:24;14.05;;;12.75;;
46653;SDS011;38960;51.074;17.004;2022-08-04T19:19:50;13.65;;;12.55;;
46653;SDS011;38960;51.074;17.004;2022-08-04T19:22:16;14.40;;;13.00;;
46653;SDS011;38960;51.074;17.004;2022-08-04T19:24:41;14.13;;;12.75;;
46653;SDS011;38960;51.074;17.004;2022-08-04T19:27:07;14.38;;;12.98;;
46653;SDS011;38960;51.074;17.004;2022-08-04T19:29:32;14.45;;;13.15;;
46653;SDS011;38960;51.074;17.004;2022-08-04T19:31:57;14.75;;;13.30;;
46653;SDS011;38960;51.074;17.004;2022-08-04T19:34:23;14.70;;;13.40;;